Time;durP1;ratioP1;P1;durP2;ratioP2;P2;SDS_P1;SDS_P2;PMS_P1;PMS_P2;Temp;Humidity;BMP_temperature;BMP_pressure;BME280_temperature;BME280_humidity;BME280_pressure;Samples;Min_cycle;Max_cycle;Signal;HPM_P1;HPM_P2
2022/10/07 00:02:13;;;;;;;8.32;5.60;;;23.50;60.80;;;;;;7678993;22;80660;-62
2022/10/07 00:05:14;;;;;;;10.02;5.90;;;23.50;60.70;;;;;;7679848;22;79976;-62
2022/10/07 00:08:15;;;;;;;8.75;5.13;;;23.50;60.70;;;;;;7677608;22;80311;-62
2022/10/07 00:11:15;;;;;;;11.63;5.90;;;23.50;60.70;;;;;;7679132;22;87840;-64
2022/10/07 00:14:16;;;;;;;11.50;6.00;;;23.40;60.50;;;;;;7676529;22;80316;-61
2022/10/07 00:17:17;;;;;;;7.07;5.25;;;23.50;60.50;;;;;;7677254;22;80289;-63
2022/10/07 00:20:17;;;;;;;11.00;6.15;;;23.50;60.40;;;;;;7680430;22;80930;-50
2022/10/07 00:23:18;;;;;;;8.20;5.97;;;23.40;60.40;;;;;;7677842;22;80541;-53
2022/10/07 00:26:18;;;;;;;8.85;6.15;;;23.50;60.50;;;;;;7678009;22;80218;-51
2022/10/07 00:29:19;;;;;;;11.25;5.95;;;23.40;60.50;;;;;;7677314;22;80335;-52
2022/10/07 00:32:19;;;;;;;9.15;5.82;;;23.40;60.40;;;;;;7677264;22;80170;-53
2022/10/07 00:35:20;;;;;;;10.05;6.65;;;23.30;60.40;;;;;;7677436;22;80901;-53
2022/10/07 00:38:21;;;;;;;11.07;6.35;;;23.30;60.40;;;;;;7652099;22;82879;-51
2022/10/07 00:41:21;;;;;;;12.98;5.90;;;23.30;60.30;;;;;;7678171;22;80870;-54
2022/10/07 00:44:22;;;;;;;8.75;6.10;;;23.30;60.10;;;;;;7675535;22;80653;-51
2022/10/07 00:47:22;;;;;;;12.18;6.80;;;23.20;60.00;;;;;;7652419;22;81451;-50
2022/10/07 00:50:24;;;;;;;12.80;6.22;;;23.20;59.90;;;;;;7673332;22;80572;-52
2022/10/07 00:53:24;;;;;;;11.48;6.35;;;23.20;59.90;;;;;;7677000;22;80357;-54
2022/10/07 00:56:25;;;;;;;10.25;6.50;;;23.20;59.80;;;;;;7680122;22;80449;-52
2022/10/07 00:59:25;;;;;;;10.68;6.40;;;23.20;59.60;;;;;;7651154;22;81536;-54
2022/10/07 01:02:26;;;;;;;9.23;5.82;;;23.20;59.50;;;;;;7651538;22;81602;-53
2022/10/07 01:05:27;;;;;;;10.95;6.50;;;23.20;59.50;;;;;;7652301;22;83273;-54
2022/10/07 01:08:27;;;;;;;13.98;6.50;;;23.20;59.40;;;;;;7653470;22;81744;-55
2022/10/07 01:11:28;;;;;;;10.02;5.95;;;23.10;59.30;;;;;;7651604;22;81757;-52
2022/10/07 01:14:29;;;;;;;11.68;6.45;;;23.10;59.20;;;;;;7651942;22;82121;-54
2022/10/07 01:17:30;;;;;;;9.68;6.13;;;23.10;59.20;;;;;;7679321;22;81213;-53
2022/10/07 01:20:30;;;;;;;11.38;6.15;;;23.10;59.10;;;;;;7678509;22;79989;-54
2022/10/07 01:23:31;;;;;;;11.70;6.43;;;23.10;59.00;;;;;;7680145;22;80744;-52
2022/10/07 01:26:32;;;;;;;9.98;6.05;;;23.10;59.50;;;;;;7677531;22;80289;-55
2022/10/07 01:29:32;;;;;;;11.73;6.18;;;23.10;58.90;;;;;;7679370;22;80155;-50
2022/10/07 01:32:33;;;;;;;14.07;6.45;;;23.10;58.70;;;;;;7651435;22;82742;-53
2022/10/07 01:35:35;;;;;;;8.75;5.88;;;23.10;58.70;;;;;;7652716;22;83449;-52
2022/10/07 01:38:36;;;;;;;10.48;6.53;;;23.10;58.70;;;;;;7651799;22;80375;-53
2022/10/07 01:41:37;;;;;;;10.95;6.18;;;23.00;58.50;;;;;;7653189;22;83274;-54
2022/10/07 01:44:38;;;;;;;12.73;6.88;;;23.00;58.60;;;;;;7649864;22;81894;-53
2022/10/07 01:47:38;;;;;;;11.68;6.43;;;23.00;58.40;;;;;;7653976;22;83206;-54
2022/10/07 01:50:39;;;;;;;11.23;5.95;;;23.00;58.40;;;;;;7649447;22;81566;-48
2022/10/07 01:53:39;;;;;;;9.90;6.15;;;23.00;58.30;;;;;;7681147;22;80143;-47
2022/10/07 01:56:43;;;;;;;9.38;5.45;;;23.00;58.20;;;;;;7651111;22;82635;-52
2022/10/07 01:59:44;;;;;;;8.80;6.10;;;23.00;58.10;;;;;;7652545;22;83089;-47
2022/10/07 02:02:46;;;;;;;10.02;6.07;;;23.00;58.00;;;;;;7677916;22;80195;-50
2022/10/07 02:05:46;;;;;;;16.20;6.93;;;23.00;58.00;;;;;;7650348;22;81731;-47
2022/10/07 02:08:47;;;;;;;12.93;7.07;;;23.00;57.90;;;;;;7651729;22;83673;-50
2022/10/07 02:11:48;;;;;;;8.23;5.97;;;23.00;57.80;;;;;;7680940;22;81511;-51
2022/10/07 02:14:50;;;;;;;9.43;5.97;;;23.00;57.80;;;;;;7675623;22;81556;-48
2022/10/07 02:17:51;;;;;;;12.68;6.15;;;22.90;57.60;;;;;;7677732;22;81290;-47
2022/10/07 02:20:51;;;;;;;10.02;6.43;;;22.90;57.60;;;;;;7678353;22;80329;-48
2022/10/07 02:23:54;;;;;;;12.40;6.43;;;22.90;57.50;;;;;;7652209;22;83226;-49
2022/10/07 02:26:55;;;;;;;8.82;6.20;;;22.90;57.40;;;;;;7675586;22;80387;-54
2022/10/07 02:29:56;;;;;;;14.63;6.45;;;22.90;57.30;;;;;;7654150;22;83270;-48
2022/10/07 02:32:57;;;;;;;7.72;5.75;;;22.90;57.20;;;;;;7675239;22;80723;-49
2022/10/07 02:35:57;;;;;;;9.32;5.82;;;22.80;57.10;;;;;;7651995;22;83021;-49
2022/10/07 02:38:59;;;;;;;11.18;5.80;;;22.80;57.10;;;;;;7678174;22;81124;-53
2022/10/07 02:42:01;;;;;;;7.78;5.80;;;22.80;57.00;;;;;;7654414;22;86910;-52
2022/10/07 02:45:02;;;;;;;10.13;5.75;;;22.90;57.00;;;;;;7677578;22;81076;-66
2022/10/07 02:48:03;;;;;;;9.45;6.00;;;22.90;56.90;;;;;;7681136;22;81181;-65
2022/10/07 02:51:03;;;;;;;9.70;6.25;;;22.90;56.90;;;;;;7649025;22;83414;-65
2022/10/07 02:54:05;;;;;;;10.27;6.10;;;22.90;56.90;;;;;;7652652;22;83527;-66
2022/10/07 02:57:05;;;;;;;11.10;5.90;;;22.90;56.80;;;;;;7681413;22;81128;-65
2022/10/07 03:00:06;;;;;;;10.20;6.22;;;22.90;56.80;;;;;;7652809;22;83324;-65
2022/10/07 03:03:13;;;;;;;10.48;6.25;;;22.90;56.70;;;;;;7650003;22;83336;-50
2022/10/07 03:06:21;;;;;;;11.50;6.32;;;22.80;56.80;;;;;;7652646;22;83455;-53
2022/10/07 03:09:22;;;;;;;10.48;6.25;;;22.80;56.50;;;;;;7649831;22;83031;-53
2022/10/07 03:12:23;;;;;;;7.07;5.57;;;22.80;56.20;;;;;;7679610;22;80741;-52
2022/10/07 03:15:24;;;;;;;11.80;6.53;;;22.80;56.20;;;;;;7650133;22;81990;-52
2022/10/07 03:18:26;;;;;;;9.98;6.13;;;22.80;56.10;;;;;;7650005;22;82715;-55
2022/10/07 03:21:33;;;;;;;8.82;6.10;;;22.80;56.10;;;;;;7649100;22;81610;-55
2022/10/07 03:24:35;;;;;;;9.52;6.20;;;22.80;55.90;;;;;;7652755;22;81864;-50
2022/10/07 03:27:35;;;;;;;12.48;6.25;;;22.90;56.10;;;;;;7678376;22;80153;-51
2022/10/07 03:30:36;;;;;;;9.70;5.68;;;22.90;55.70;;;;;;7649484;22;82517;-48
2022/10/07 03:33:37;;;;;;;10.18;6.05;;;22.90;55.80;;;;;;7653178;22;82617;-52
2022/10/07 03:36:40;;;;;;;9.98;6.32;;;23.00;55.90;;;;;;7649457;22;83048;-51
2022/10/07 03:39:42;;;;;;;11.70;6.15;;;23.00;55.60;;;;;;7649874;22;83198;-54
2022/10/07 03:42:44;;;;;;;18.48;6.55;;;23.00;55.90;;;;;;7647101;22;82820;-55
2022/10/07 03:45:44;;;;;;;8.32;5.75;;;23.10;55.40;;;;;;7650500;22;83279;-49
2022/10/07 03:48:46;;;;;;;9.02;5.55;;;23.20;55.60;;;;;;7680444;22;80554;-49
2022/10/07 03:51:47;;;;;;;10.63;6.20;;;23.30;55.60;;;;;;7650184;22;83214;-54
2022/10/07 03:54:47;;;;;;;6.82;5.32;;;23.40;55.50;;;;;;7651684;22;83126;-48
2022/10/07 03:57:56;;;;;;;8.15;5.40;;;23.40;55.40;;;;;;7650912;22;82880;-55
2022/10/07 04:00:57;;;;;;;12.02;5.63;;;23.50;55.40;;;;;;7627633;22;83212;-64
2022/10/07 04:03:59;;;;;;;9.43;5.88;;;23.50;55.40;;;;;;7649682;22;81349;-74
2022/10/07 04:07:00;;;;;;;6.90;5.13;;;23.60;55.40;;;;;;7651394;22;82936;-71
2022/10/07 04:10:01;;;;;;;7.93;5.35;;;23.70;55.40;;;;;;7681461;22;83172;-69
2022/10/07 04:13:02;;;;;;;20.08;6.22;;;23.70;55.60;;;;;;7680456;22;80393;-66
2022/10/07 04:16:03;;;;;;;9.18;5.72;;;23.70;55.90;;;;;;7676718;22;80425;-67
2022/10/07 04:19:04;;;;;;;12.60;4.90;;;23.70;56.20;;;;;;7648600;22;82900;-53
2022/10/07 04:22:05;;;;;;;12.25;5.32;;;23.80;56.40;;;;;;7650914;22;85092;-53
2022/10/07 04:28:26;;;;;;;12.63;5.43;;;23.90;56.70;;;;;;7677684;22;81331;-52
2022/10/07 04:31:34;;;;;;;8.27;5.43;;;23.90;56.80;;;;;;7650041;22;82945;-49
2022/10/07 04:34:39;;;;;;;8.82;5.88;;;23.90;56.80;;;;;;7652170;22;83109;-48
2022/10/07 04:37:40;;;;;;;10.23;5.45;;;23.90;56.60;;;;;;7679163;22;80254;-50
2022/10/07 04:40:41;;;;;;;13.63;5.80;;;24.00;56.60;;;;;;7641878;22;82544;-54
2022/10/07 04:43:42;;;;;;;11.52;6.20;;;24.00;56.50;;;;;;7677246;22;80632;-52
2022/10/07 04:46:46;;;;;;;10.07;5.55;;;24.00;56.50;;;;;;7651329;22;83190;-52
2022/10/07 04:49:52;;;;;;;8.80;6.18;;;24.00;56.60;;;;;;7651529;22;81925;-55
2022/10/07 04:52:53;;;;;;;17.77;6.90;;;24.00;56.70;;;;;;7647029;22;83156;-57
2022/10/07 04:55:54;;;;;;;13.15;6.30;;;24.00;56.60;;;;;;7675504;22;80717;-62
2022/10/07 04:58:57;;;;;;;13.02;6.22;;;24.00;56.60;;;;;;7649037;22;83158;-55
2022/10/07 05:01:58;;;;;;;10.40;6.20;;;24.00;56.40;;;;;;7645032;22;83066;-58
2022/10/07 05:04:59;;;;;;;16.27;6.47;;;24.00;56.40;;;;;;7648544;22;81997;-54
2022/10/07 05:08:00;;;;;;;14.57;6.57;;;24.00;56.40;;;;;;7646369;22;82082;-52
2022/10/07 05:11:02;;;;;;;16.45;6.57;;;24.00;56.50;;;;;;7647862;22;81617;-53
2022/10/07 05:14:06;;;;;;;14.65;6.93;;;24.00;56.40;;;;;;7648492;22;83167;-55
2022/10/07 05:17:07;;;;;;;19.40;7.18;;;24.00;56.70;;;;;;7653004;22;82927;-49
2022/10/07 05:20:09;;;;;;;10.93;6.60;;;24.00;56.70;;;;;;7651932;22;83407;-55
2022/10/07 05:23:11;;;;;;;16.67;7.25;;;24.00;57.20;;;;;;7679986;22;80461;-55
2022/10/07 05:26:13;;;;;;;11.77;7.05;;;24.00;56.30;;;;;;7650141;22;83317;-54
2022/10/07 05:29:16;;;;;;;13.15;7.88;;;24.00;55.80;;;;;;7649788;22;83173;-51
2022/10/07 05:32:21;;;;;;;14.45;8.18;;;23.90;55.50;;;;;;7650495;22;83524;-53
2022/10/07 05:35:21;;;;;;;13.43;8.07;;;23.90;55.40;;;;;;7649567;22;82795;-51
2022/10/07 05:38:22;;;;;;;14.82;8.65;;;23.90;55.20;;;;;;7646849;22;83006;-56
2022/10/07 05:41:23;;;;;;;19.27;9.02;;;23.90;54.50;;;;;;7681902;22;80338;-53
2022/10/07 05:44:24;;;;;;;15.23;8.52;;;23.80;54.20;;;;;;7674043;22;81355;-60
2022/10/07 05:47:26;;;;;;;19.15;9.13;;;23.80;54.00;;;;;;7654251;22;83407;-55
2022/10/07 05:50:27;;;;;;;15.30;7.18;;;23.70;54.00;;;;;;7650490;22;82825;-48
2022/10/07 05:53:28;;;;;;;16.73;7.88;;;23.70;54.20;;;;;;7639358;22;81645;-52
2022/10/07 05:56:29;;;;;;;16.83;7.85;;;23.80;54.50;;;;;;7631475;22;82515;-52
2022/10/07 05:59:30;;;;;;;12.32;7.90;;;23.80;54.50;;;;;;7640239;22;83134;-49
2022/10/07 06:02:31;;;;;;;15.68;7.47;;;23.80;54.30;;;;;;7645273;22;82969;-47
2022/10/07 06:05:32;;;;;;;12.73;7.05;;;23.80;54.10;;;;;;7627316;22;83567;-51
2022/10/07 06:08:33;;;;;;;11.57;7.38;;;23.90;53.90;;;;;;7670112;22;80484;-54
2022/10/07 06:14:54;;;;;;;15.52;6.97;;;23.90;53.30;;;;;;7653219;22;82000;-52
2022/10/07 06:17:54;;;;;;;12.57;6.88;;;24.00;53.50;;;;;;7650760;22;83045;-52
2022/10/07 06:20:56;;;;;;;12.75;6.95;;;23.90;53.10;;;;;;7651623;22;83320;-50
2022/10/07 06:23:57;;;;;;;12.75;7.30;;;23.90;53.10;;;;;;7652138;22;81513;-52
2022/10/07 06:27:03;;;;;;;14.13;7.25;;;23.90;53.20;;;;;;7651718;22;82948;-56
2022/10/07 06:30:05;;;;;;;17.38;7.10;;;23.90;53.10;;;;;;7651242;22;82264;-54
2022/10/07 06:33:05;;;;;;;14.40;7.32;;;23.90;52.90;;;;;;7674199;22;80853;-54
2022/10/07 06:36:06;;;;;;;9.98;7.00;;;23.90;52.80;;;;;;7677106;22;80532;-58
2022/10/07 06:39:07;;;;;;;13.52;7.45;;;24.00;53.00;;;;;;7643621;22;83331;-54
2022/10/07 06:42:12;;;;;;;17.15;7.05;;;24.00;53.20;;;;;;7645230;22;82051;-54
2022/10/07 06:45:31;;;;;;;11.20;6.97;;;24.00;53.20;;;;;;7638078;22;83163;-54
2022/10/07 06:48:32;;;;;;;13.15;7.18;;;24.10;53.40;;;;;;7645713;22;83388;-55
2022/10/07 06:51:33;;;;;;;11.70;6.55;;;24.10;53.40;;;;;;7673232;22;81241;-55
2022/10/07 06:54:34;;;;;;;13.38;6.28;;;24.10;53.40;;;;;;7645105;22;81940;-53
2022/10/07 06:57:34;;;;;;;12.48;6.63;;;24.10;53.50;;;;;;7646613;22;81611;-55
2022/10/07 07:00:35;;;;;;;10.27;6.45;;;24.10;53.30;;;;;;7645310;22;83319;-55
2022/10/07 07:03:36;;;;;;;12.20;6.10;;;24.10;53.30;;;;;;7675455;22;80281;-46
2022/10/07 07:06:36;;;;;;;11.77;6.15;;;24.10;53.40;;;;;;7646230;22;82846;-47
2022/10/07 07:09:38;;;;;;;14.35;7.07;;;24.10;53.40;;;;;;7643588;22;81978;-52
2022/10/07 07:12:41;;;;;;;10.40;6.90;;;24.10;53.40;;;;;;7645441;22;83321;-49
2022/10/07 07:15:43;;;;;;;17.05;7.40;;;24.00;53.40;;;;;;7640010;22;83662;-49
2022/10/07 07:18:44;;;;;;;10.55;6.75;;;24.10;53.40;;;;;;7673465;22;80999;-59
2022/10/07 07:21:45;;;;;;;14.23;7.35;;;24.10;53.60;;;;;;7650524;22;82670;-53
2022/10/07 07:24:49;;;;;;;10.93;7.45;;;24.00;53.40;;;;;;7648387;22;83342;-54
2022/10/07 07:27:50;;;;;;;18.65;8.70;;;24.00;53.30;;;;;;7650918;22;83116;-58
2022/10/07 07:30:51;;;;;;;16.17;8.18;;;24.00;53.50;;;;;;7648477;22;81960;-47
2022/10/07 07:33:52;;;;;;;10.35;7.70;;;23.90;53.40;;;;;;7677167;22;80433;-57
2022/10/07 07:36:54;;;;;;;18.63;9.32;;;23.90;53.60;;;;;;7651079;22;83147;-52
2022/10/07 07:39:59;;;;;;;14.50;9.13;;;23.80;53.60;;;;;;7643385;22;83141;-48
2022/10/07 07:43:01;;;;;;;16.70;9.65;;;23.80;53.70;;;;;;7652710;22;87806;-55
2022/10/07 07:46:03;;;;;;;92.40;47.08;;;23.80;53.80;;;;;;7681104;22;82480;-50
2022/10/07 07:49:04;;;;;;;147.32;76.47;;;23.80;54.00;;;;;;7642359;22;83179;-47
2022/10/07 07:52:05;;;;;;;166.73;84.82;;;23.80;54.10;;;;;;7643003;22;84899;-49
2022/10/07 07:55:12;;;;;;;213.65;112.57;;;23.80;54.10;;;;;;7638678;22;85768;-48
2022/10/07 07:58:14;;;;;;;280.85;140.18;;;23.90;54.20;;;;;;7639294;22;85644;-48
2022/10/07 08:01:15;;;;;;;292.20;148.40;;;23.80;54.10;;;;;;7638046;22;87990;-47
2022/10/07 08:04:17;;;;;;;361.63;179.77;;;23.90;54.30;;;;;;7638208;22;88465;-47
2022/10/07 08:07:19;;;;;;;292.38;147.65;;;24.00;54.10;;;;;;7645827;22;88473;-48
2022/10/07 08:10:21;;;;;;;247.77;128.50;;;24.10;54.20;;;;;;7642686;22;87906;-50
2022/10/07 08:13:22;;;;;;;217.82;105.72;;;24.10;54.60;;;;;;7671427;22;85145;-45
2022/10/07 08:16:22;;;;;;;175.05;87.30;;;24.20;54.60;;;;;;7643920;22;87652;-48
2022/10/07 08:19:24;;;;;;;144.55;67.10;;;24.30;54.70;;;;;;7648190;22;88101;-46
2022/10/07 08:22:26;;;;;;;114.78;53.60;;;24.30;54.60;;;;;;7649460;22;84184;-50
2022/10/07 08:25:27;;;;;;;88.38;46.85;;;24.30;54.60;;;;;;7640042;22;85915;-47
2022/10/07 08:28:28;;;;;;;74.22;38.65;;;24.40;54.60;;;;;;7639703;22;85023;-49
2022/10/07 08:31:30;;;;;;;74.05;33.35;;;24.40;54.80;;;;;;7650484;22;84927;-50
2022/10/07 08:34:31;;;;;;;51.08;27.60;;;24.40;54.90;;;;;;7674175;22;84212;-58
2022/10/07 08:37:31;;;;;;;48.58;25.17;;;24.50;55.00;;;;;;7674771;22;82746;-58
2022/10/07 08:40:32;;;;;;;40.08;21.42;;;24.50;55.20;;;;;;7675938;22;83108;-57
2022/10/07 08:43:33;;;;;;;44.33;19.17;;;24.50;55.20;;;;;;7676704;22;82844;-58
2022/10/07 08:46:33;;;;;;;29.20;16.50;;;24.50;55.30;;;;;;7675781;22;83075;-59
2022/10/07 08:49:34;;;;;;;24.35;16.27;;;24.60;55.20;;;;;;7678282;22;83002;-58
2022/10/07 08:52:35;;;;;;;27.50;14.98;;;24.60;55.00;;;;;;7672033;22;83903;-59
2022/10/07 08:55:35;;;;;;;25.15;14.18;;;24.70;55.10;;;;;;7678492;22;83499;-60
2022/10/07 08:58:36;;;;;;;24.45;12.88;;;24.70;54.80;;;;;;7677210;22;83275;-59
2022/10/07 09:01:36;;;;;;;22.83;13.85;;;24.70;54.80;;;;;;7654472;22;84912;-58
2022/10/07 09:04:38;;;;;;;18.17;11.05;;;24.80;54.60;;;;;;7633138;22;83039;-59
2022/10/07 09:07:39;;;;;;;19.13;10.98;;;24.90;54.60;;;;;;7632193;22;83055;-59
2022/10/07 09:10:39;;;;;;;20.17;10.75;;;24.90;54.90;;;;;;7632284;22;82916;-62
2022/10/07 09:13:41;;;;;;;19.75;10.80;;;24.90;54.60;;;;;;7633853;22;84224;-62
2022/10/07 09:16:47;;;;;;;19.42;10.45;;;24.90;54.50;;;;;;7605556;22;85290;-61
2022/10/07 09:19:47;;;;;;;21.02;10.82;;;24.90;54.40;;;;;;7637597;22;82850;-61
2022/10/07 09:22:53;;;;;;;17.70;9.15;;;25.00;54.70;;;;;;7632733;22;82914;-60
2022/10/07 09:25:54;;;;;;;17.52;10.15;;;25.10;55.20;;;;;;7640818;22;83235;-64
2022/10/07 09:28:54;;;;;;;16.92;9.48;;;25.10;55.60;;;;;;7636860;22;83119;-61
2022/10/07 09:31:55;;;;;;;16.73;9.02;;;25.20;55.30;;;;;;7642586;22;82959;-59
2022/10/07 09:34:56;;;;;;;18.98;9.02;;;25.20;55.40;;;;;;7645762;22;80720;-61
2022/10/07 09:37:56;;;;;;;16.20;8.55;;;25.20;55.20;;;;;;7642264;22;80917;-60
2022/10/07 09:41:15;;;;;;;17.33;8.02;;;25.30;55.20;;;;;;7644514;22;80512;-61
2022/10/07 09:44:16;;;;;;;19.85;8.70;;;25.30;55.30;;;;;;7644309;22;80290;-60
2022/10/07 09:47:17;;;;;;;15.38;7.78;;;25.30;55.40;;;;;;7641932;22;81834;-61
2022/10/07 09:50:18;;;;;;;14.70;8.07;;;25.40;55.40;;;;;;7638099;22;81455;-59
2022/10/07 09:53:18;;;;;;;17.70;7.28;;;25.50;55.40;;;;;;7641573;22;81058;-61
2022/10/07 09:56:19;;;;;;;11.73;7.40;;;25.50;55.20;;;;;;7641007;22;82238;-61
2022/10/07 09:59:19;;;;;;;14.02;6.95;;;25.50;55.20;;;;;;7637055;22;80273;-60
2022/10/07 10:02:20;;;;;;;13.85;8.10;;;25.50;55.30;;;;;;7662973;22;80280;-60
2022/10/07 10:05:20;;;;;;;15.63;7.63;;;25.60;55.50;;;;;;7681332;22;80547;-60
2022/10/07 10:08:21;;;;;;;12.10;7.03;;;25.60;55.20;;;;;;7681904;22;80774;-61
2022/10/07 10:11:22;;;;;;;14.13;7.53;;;25.70;55.30;;;;;;7681491;22;80004;-60
2022/10/07 10:14:22;;;;;;;9.20;7.03;;;25.70;55.20;;;;;;7682284;22;80215;-61
2022/10/07 10:17:23;;;;;;;8.48;6.45;;;25.70;55.10;;;;;;7681823;22;80454;-61
2022/10/07 10:20:24;;;;;;;13.48;6.50;;;25.80;55.20;;;;;;7679895;22;80271;-60
2022/10/07 10:23:24;;;;;;;11.65;6.45;;;25.80;55.00;;;;;;7681427;22;80433;-60
2022/10/07 10:26:25;;;;;;;9.57;6.45;;;25.80;55.10;;;;;;7683307;22;80376;-61
2022/10/07 10:29:25;;;;;;;11.52;6.85;;;25.90;55.00;;;;;;7681297;22;80792;-60
2022/10/07 10:32:26;;;;;;;12.27;6.20;;;25.90;54.80;;;;;;7668811;22;80748;-61
2022/10/07 10:35:26;;;;;;;8.48;5.93;;;25.90;54.90;;;;;;7677154;22;81313;-60
2022/10/07 10:38:27;;;;;;;8.18;5.80;;;26.00;54.70;;;;;;7679431;22;81394;-61
2022/10/07 10:41:27;;;;;;;10.02;5.43;;;26.00;55.10;;;;;;7682348;22;80160;-60
2022/10/07 10:44:31;;;;;;;9.85;6.32;;;26.00;54.70;;;;;;7678857;22;81307;-59
2022/10/07 10:47:32;;;;;;;10.93;6.30;;;26.00;54.40;;;;;;7679528;22;80802;-59
2022/10/07 10:50:33;;;;;;;7.82;6.10;;;26.00;54.20;;;;;;7678836;22;80155;-59
2022/10/07 10:53:34;;;;;;;10.68;5.88;;;25.90;54.20;;;;;;7675366;22;80278;-59
2022/10/07 10:56:34;;;;;;;15.00;7.18;;;25.90;53.60;;;;;;7652681;22;80724;-59
2022/10/07 10:59:36;;;;;;;8.43;6.57;;;25.90;53.60;;;;;;7674845;22;81615;-60
2022/10/07 11:02:36;;;;;;;9.30;6.00;;;25.90;53.40;;;;;;7679475;22;80616;-61
2022/10/07 11:05:37;;;;;;;14.73;7.40;;;25.90;54.40;;;;;;7682356;22;80770;-60
2022/10/07 11:08:37;;;;;;;9.38;6.40;;;25.90;54.30;;;;;;7680612;22;80965;-61
2022/10/07 11:11:38;;;;;;;12.20;6.45;;;25.90;54.70;;;;;;7681603;22;80587;-61
2022/10/07 11:14:39;;;;;;;10.85;6.15;;;26.00;54.90;;;;;;7680202;22;80557;-60
2022/10/07 11:17:39;;;;;;;10.68;5.97;;;26.00;54.80;;;;;;7676662;22;80456;-61
2022/10/07 11:20:46;;;;;;;10.65;6.78;;;26.00;54.90;;;;;;7674986;22;81333;-63
2022/10/07 11:23:47;;;;;;;17.77;7.10;;;26.10;55.80;;;;;;7680504;22;81138;-62
2022/10/07 11:26:49;;;;;;;13.02;6.72;;;26.20;56.00;;;;;;7679985;22;80495;-60
2022/10/07 11:29:50;;;;;;;10.95;6.22;;;26.20;56.50;;;;;;7677198;22;80953;-62
2022/10/07 11:32:53;;;;;;;10.13;6.82;;;26.30;56.50;;;;;;7681342;22;81431;-61
2022/10/07 11:35:54;;;;;;;11.15;6.60;;;26.30;55.70;;;;;;7681047;22;80857;-61
2022/10/07 11:38:54;;;;;;;10.02;6.22;;;26.20;55.40;;;;;;7680947;22;80002;-59
2022/10/07 11:41:55;;;;;;;9.70;6.57;;;26.30;54.90;;;;;;7680503;22;80327;-61
2022/10/07 11:44:56;;;;;;;10.38;7.00;;;26.30;54.60;;;;;;7679422;22;80825;-60
2022/10/07 11:47:57;;;;;;;7.97;6.03;;;26.30;54.30;;;;;;7680420;22;80596;-59
2022/10/07 11:50:58;;;;;;;9.55;6.32;;;26.30;54.10;;;;;;7669552;22;80318;-60
2022/10/07 11:54:00;;;;;;;11.30;7.13;;;26.30;53.60;;;;;;7678451;22;80381;-60
2022/10/07 11:57:01;;;;;;;11.77;6.57;;;26.30;53.60;;;;;;7679526;22;80685;-60
2022/10/07 12:00:03;;;;;;;7.75;5.90;;;26.30;53.50;;;;;;7673274;22;80494;-61
2022/10/07 12:03:13;;;;;;;9.60;6.03;;;26.40;53.70;;;;;;7678028;22;81701;-60
2022/10/07 12:06:13;;;;;;;10.05;6.63;;;26.40;53.30;;;;;;7672065;22;80891;-60
2022/10/07 12:09:14;;;;;;;10.95;6.28;;;26.40;53.10;;;;;;7675871;22;80837;-60
2022/10/07 12:12:14;;;;;;;11.70;6.20;;;26.50;53.30;;;;;;7676750;22;80687;-60
2022/10/07 12:15:14;;;;;;;14.57;6.78;;;26.50;53.70;;;;;;7681380;22;80475;-61
2022/10/07 12:18:18;;;;;;;8.30;6.20;;;26.50;53.60;;;;;;7680758;22;80820;-60
2022/10/07 12:21:21;;;;;;;8.73;6.63;;;26.50;53.10;;;;;;7653229;22;82140;-57
2022/10/07 12:24:22;;;;;;;11.70;6.32;;;26.50;53.20;;;;;;7682778;22;80306;-59
2022/10/07 12:27:22;;;;;;;10.30;5.65;;;26.50;52.80;;;;;;7681100;22;80231;-60
2022/10/07 12:30:23;;;;;;;7.15;6.03;;;26.50;52.70;;;;;;7678847;22;80738;-58
2022/10/07 12:33:24;;;;;;;12.90;6.47;;;26.40;53.30;;;;;;7682876;22;80496;-60
2022/10/07 12:36:24;;;;;;;10.73;5.50;;;26.50;53.00;;;;;;7653199;22;80077;-59
2022/10/07 12:39:25;;;;;;;12.50;6.72;;;26.50;52.70;;;;;;7651619;22;82368;-61
2022/10/07 12:42:28;;;;;;;14.68;5.78;;;26.50;52.60;;;;;;7674806;22;81375;-61
2022/10/07 12:45:29;;;;;;;9.38;5.78;;;26.50;52.70;;;;;;7678939;22;80161;-62
2022/10/07 12:48:29;;;;;;;11.45;5.70;;;26.40;52.30;;;;;;7674194;22;80690;-62
2022/10/07 12:51:30;;;;;;;12.07;5.90;;;26.40;52.30;;;;;;7679311;22;80149;-58
2022/10/07 12:54:30;;;;;;;11.77;5.68;;;26.40;52.40;;;;;;7673335;22;81489;-53
2022/10/07 12:57:31;;;;;;;8.90;6.53;;;26.40;51.90;;;;;;7674619;22;81933;-53
2022/10/07 13:00:31;;;;;;;8.63;5.32;;;26.40;51.70;;;;;;7671738;22;80192;-56
2022/10/07 13:03:33;;;;;;;8.10;5.90;;;26.40;51.90;;;;;;7676713;22;80376;-54
2022/10/07 13:06:34;;;;;;;10.05;5.95;;;26.40;51.30;;;;;;7678678;22;80820;-54
2022/10/07 13:09:34;;;;;;;8.38;5.50;;;26.30;51.30;;;;;;7673463;22;80727;-55
2022/10/07 13:12:35;;;;;;;7.38;5.82;;;26.20;51.10;;;;;;7653116;22;81166;-50
2022/10/07 13:15:40;;;;;;;9.50;5.43;;;26.20;51.30;;;;;;7650213;22;81755;-55
2022/10/07 13:18:40;;;;;;;10.65;5.75;;;26.20;51.20;;;;;;7677743;22;81547;-51
2022/10/07 13:21:41;;;;;;;7.95;5.22;;;26.20;51.80;;;;;;7671937;22;80064;-61
2022/10/07 13:24:41;;;;;;;10.85;5.90;;;26.30;52.10;;;;;;7677395;22;80334;-54
2022/10/07 13:27:42;;;;;;;9.15;5.95;;;26.30;52.20;;;;;;7670572;22;80379;-57
2022/10/07 13:30:42;;;;;;;9.00;5.68;;;26.30;51.90;;;;;;7676425;22;80886;-56
2022/10/07 13:33:43;;;;;;;13.27;6.05;;;26.30;52.10;;;;;;7673671;22;80158;-57
2022/10/07 13:36:43;;;;;;;10.27;5.78;;;26.40;52.30;;;;;;7675487;22;79910;-57
2022/10/07 13:39:45;;;;;;;8.20;4.88;;;26.40;52.60;;;;;;7678403;22;80676;-57
2022/10/07 13:42:45;;;;;;;8.75;5.28;;;26.40;52.60;;;;;;7670349;22;80693;-56
2022/10/07 13:45:46;;;;;;;12.48;5.65;;;26.50;53.20;;;;;;7681020;22;81075;-56
2022/10/07 13:48:47;;;;;;;10.02;5.25;;;26.50;53.90;;;;;;7682005;22;81520;-56
2022/10/07 13:51:48;;;;;;;11.90;5.28;;;26.50;53.40;;;;;;7681717;22;80523;-57
2022/10/07 13:54:48;;;;;;;10.40;5.07;;;26.60;53.50;;;;;;7670269;22;81650;-57
2022/10/07 13:57:49;;;;;;;11.57;5.05;;;26.60;53.60;;;;;;7674603;22;80869;-57
2022/10/07 14:00:49;;;;;;;6.07;4.82;;;26.60;53.50;;;;;;7683710;22;80387;-58
2022/10/07 14:03:50;;;;;;;11.02;5.15;;;26.60;53.30;;;;;;7679183;22;81132;-57
2022/10/07 14:06:52;;;;;;;5.68;4.80;;;26.60;53.10;;;;;;7671336;22;80886;-55
2022/10/07 14:09:52;;;;;;;7.00;5.40;;;26.50;52.70;;;;;;7677448;22;80296;-58
2022/10/07 14:12:53;;;;;;;8.82;5.55;;;26.50;52.40;;;;;;7671695;22;81076;-57
2022/10/07 14:15:54;;;;;;;12.45;5.38;;;26.50;52.60;;;;;;7681187;22;80264;-56
2022/10/07 14:18:55;;;;;;;13.23;4.78;;;26.50;52.40;;;;;;7680725;22;80952;-57
2022/10/07 14:21:55;;;;;;;8.25;5.22;;;26.50;52.50;;;;;;7681878;22;81536;-58
2022/10/07 14:24:57;;;;;;;8.07;4.57;;;26.50;52.30;;;;;;7679808;22;80788;-58
2022/10/07 14:27:57;;;;;;;6.95;4.90;;;26.40;52.40;;;;;;7676781;22;80320;-57
2022/10/07 14:37:36;;;;;;;12.63;4.80;;;26.30;52.60;;;;;;7681162;22;80331;-58
2022/10/07 14:40:37;;;;;;;11.40;5.45;;;26.30;52.80;;;;;;7671077;22;81251;-58
2022/10/07 14:43:38;;;;;;;6.38;4.80;;;26.30;52.90;;;;;;7678797;22;81574;-57
2022/10/07 14:46:39;;;;;;;6.93;5.07;;;26.30;52.80;;;;;;7677516;22;80904;-56
2022/10/07 14:49:43;;;;;;;7.82;5.60;;;26.30;53.00;;;;;;7676822;22;80331;-56
2022/10/07 14:52:45;;;;;;;6.07;4.78;;;26.30;53.00;;;;;;7682924;22;81212;-56
2022/10/07 14:55:45;;;;;;;9.13;5.30;;;26.30;53.30;;;;;;7651316;22;81460;-56
2022/10/07 14:58:46;;;;;;;9.32;5.45;;;26.20;53.40;;;;;;7652434;22;81352;-56
2022/10/07 15:01:48;;;;;;;11.63;5.57;;;26.20;53.50;;;;;;7659170;22;80791;-49
2022/10/07 15:04:48;;;;;;;9.73;5.57;;;26.20;53.40;;;;;;7657842;22;80562;-49
2022/10/07 15:07:50;;;;;;;10.85;5.20;;;26.20;53.50;;;;;;7655072;22;80553;-47
2022/10/07 15:10:50;;;;;;;71.55;39.60;;;26.10;53.80;;;;;;7659200;22;81351;-50
2022/10/07 15:13:51;;;;;;;156.50;85.40;;;26.10;54.00;;;;;;7661615;22;83263;-46
2022/10/07 15:16:51;;;;;;;59.55;33.20;;;26.10;54.10;;;;;;7659899;22;83775;-49
2022/10/07 15:19:52;;;;;;;159.70;81.85;;;26.10;54.30;;;;;;7653211;22;84291;-45
2022/10/07 15:22:52;;;;;;;114.90;61.38;;;26.00;54.40;;;;;;7651890;22;84689;-48
2022/10/07 15:25:53;;;;;;;97.60;49.28;;;26.00;54.20;;;;;;7654665;22;83328;-49
2022/10/07 15:28:53;;;;;;;87.07;43.35;;;25.90;54.50;;;;;;7648145;22;83643;-48
2022/10/07 15:31:54;;;;;;;71.30;38.40;;;25.90;54.70;;;;;;7647791;22;84298;-51
2022/10/07 15:34:56;;;;;;;66.05;36.17;;;25.90;54.80;;;;;;7657708;22;83395;-60
2022/10/07 15:37:57;;;;;;;60.67;31.55;;;25.90;54.90;;;;;;7646709;22;83686;-56
2022/10/07 15:40:57;;;;;;;58.65;29.17;;;25.80;54.90;;;;;;7638250;22;83818;-58
2022/10/07 15:43:58;;;;;;;53.90;28.13;;;25.80;55.00;;;;;;7647541;22;83718;-57
2022/10/07 15:46:58;;;;;;;61.55;26.00;;;25.70;55.10;;;;;;7665062;22;82809;-57